createdAt,value
2024-02-01T00:00:12.824Z,962.1
2024-02-01T00:01:15.121Z,962.1
2024-02-01T00:02:17.105Z,962.2
2024-02-01T00:03:19.259Z,962.1
2024-02-01T00:04:21.321Z,962.1
2024-02-01T00:05:23.504Z,962.1
2024-02-01T00:06:25.910Z,962.1
2024-02-01T00:07:27.952Z,962.2
2024-02-01T00:08:29.963Z,962.1
2024-02-01T00:09:31.757Z,962.1
2024-02-01T00:10:33.549Z,962.1
2024-02-01T00:11:35.496Z,962.1
2024-02-01T00:12:37.426Z,962.1
2024-02-01T00:13:39.230Z,962.1
2024-02-01T00:14:41.117Z,962.1
2024-02-01T00:15:42.946Z,962.1
2024-02-01T00:16:44.642Z,962.1
2024-02-01T00:17:46.797Z,962.1
2024-02-01T00:18:52.378Z,962.1
2024-02-01T00:19:54.967Z,962
2024-02-01T00:20:57.237Z,962.1
2024-02-01T00:21:59.210Z,962
2024-02-01T00:23:01.006Z,962
2024-02-01T00:24:03.001Z,962
2024-02-01T00:25:05.093Z,962
2024-02-01T00:26:06.870Z,962
2024-02-01T00:27:08.797Z,962
2024-02-01T00:28:10.931Z,962
2024-02-01T00:29:12.746Z,961.9
2024-02-01T00:30:14.948Z,962
2024-02-01T00:31:16.929Z,961.9
2024-02-01T00:32:18.980Z,961.9
2024-02-01T00:33:21.288Z,961.9
2024-02-01T00:34:23.888Z,962
2024-02-01T00:35:26.036Z,962
2024-02-01T00:36:27.779Z,961.9
2024-02-01T00:37:29.506Z,961.9
2024-02-01T00:38:31.570Z,961.9
2024-02-01T00:39:33.503Z,961.9
2024-02-01T00:40:35.261Z,961.9
2024-02-01T00:41:37.431Z,961.9
2024-02-01T00:42:39.826Z,961.9
2024-02-01T00:43:41.956Z,961.9
2024-02-01T00:44:44.074Z,962
2024-02-01T00:45:46.136Z,962
2024-02-01T00:46:48.070Z,962
2024-02-01T00:47:50.626Z,961.9
2024-02-01T00:48:53.275Z,961.9
2024-02-01T00:49:55.568Z,961.9
2024-02-01T00:50:57.557Z,961.9
2024-02-01T00:51:59.965Z,961.9
2024-02-01T00:53:01.739Z,961.9
2024-02-01T00:54:03.741Z,961.9
2024-02-01T00:55:05.763Z,961.9
2024-02-01T00:56:07.531Z,961.9
2024-02-01T00:57:09.886Z,961.9
2024-02-01T00:58:11.933Z,961.9
2024-02-01T00:59:13.706Z,961.9
2024-02-01T01:00:15.973Z,961.9
2024-02-01T01:01:18.616Z,961.9
2024-02-01T01:02:20.798Z,961.9
2024-02-01T01:03:22.859Z,961.9
2024-02-01T01:04:24.960Z,961.9
2024-02-01T01:05:26.878Z,961.9
2024-02-01T01:06:28.667Z,961.9
2024-02-01T01:07:30.707Z,961.8
2024-02-01T01:08:32.590Z,961.9
2024-02-01T01:09:34.345Z,961.9
2024-02-01T01:10:36.142Z,961.9
2024-02-01T01:11:37.904Z,961.9
2024-02-01T01:12:39.711Z,961.9
2024-02-01T01:13:41.509Z,961.8
2024-02-01T01:14:43.737Z,961.9
2024-02-01T01:15:46.295Z,961.9
2024-02-01T01:16:48.103Z,961.9
2024-02-01T01:17:50.160Z,961.9
2024-02-01T01:18:52.786Z,961.9
2024-02-01T01:19:55.058Z,961.9
2024-02-01T01:20:57.342Z,961.9
2024-02-01T01:21:59.321Z,961.9
2024-02-01T01:23:01.410Z,961.9
2024-02-01T01:24:03.502Z,961.8
2024-02-01T01:25:05.725Z,961.7
2024-02-01T01:26:07.710Z,961.7
2024-02-01T01:27:09.927Z,961.7
2024-02-01T01:28:12.074Z,961.7
2024-02-01T01:29:13.910Z,961.7
2024-02-01T01:30:15.948Z,961.7
2024-02-01T01:31:17.860Z,961.6
2024-02-01T01:32:19.627Z,961.7
2024-02-01T01:33:21.716Z,961.7
2024-02-01T01:34:23.959Z,961.7
2024-02-01T01:35:25.900Z,961.7
2024-02-01T01:36:27.693Z,961.7
2024-02-01T01:37:29.454Z,961.7
2024-02-01T01:38:31.354Z,961.6
2024-02-01T01:39:33.338Z,961.6
2024-02-01T01:40:35.123Z,961.6
2024-02-01T01:41:37.124Z,961.5
2024-02-01T01:42:38.976Z,961.5
2024-02-01T01:43:40.710Z,961.5
2024-02-01T01:44:42.442Z,961.5
2024-02-01T01:45:44.320Z,961.5
2024-02-01T01:46:46.124Z,961.5
2024-02-01T01:47:48.515Z,961.5
2024-02-01T01:48:51.726Z,961.5
2024-02-01T01:49:54.439Z,961.5
2024-02-01T01:50:56.754Z,961.5
2024-02-01T01:51:58.649Z,961.5
2024-02-01T01:53:00.480Z,961.4
2024-02-01T01:54:02.457Z,961.5
2024-02-01T01:55:04.363Z,961.4
2024-02-01T01:56:06.150Z,961.5
2024-02-01T01:57:08.168Z,961.5
2024-02-01T01:58:10.205Z,961.4
2024-02-01T01:59:11.981Z,961.4
2024-02-01T02:00:14.021Z,961.4
2024-02-01T02:01:16.168Z,961.4
2024-02-01T02:02:18.253Z,961.4
2024-02-01T02:03:20.457Z,961.4
2024-02-01T02:04:23.271Z,961.4
2024-02-01T02:05:25.664Z,961.4
2024-02-01T02:06:28.362Z,961.4
2024-02-01T02:07:30.580Z,961.4
2024-02-01T02:08:32.574Z,961.4
2024-02-01T02:09:34.381Z,961.4
2024-02-01T02:10:37.242Z,961.3
2024-02-01T02:11:39.161Z,961.3
2024-02-01T02:12:40.923Z,961.3
2024-02-01T02:13:42.699Z,961.3
2024-02-01T02:14:44.565Z,961.3
2024-02-01T02:15:46.888Z,961.3
2024-02-01T02:16:48.713Z,961.3
2024-02-01T02:17:51.368Z,961.2
2024-02-01T02:18:54.515Z,961.2
2024-02-01T02:19:58.211Z,961.3
2024-02-01T02:21:00.916Z,961.3
2024-02-01T02:22:02.847Z,961.3
2024-02-01T02:23:04.670Z,961.3
2024-02-01T02:24:06.646Z,961.3
2024-02-01T02:25:08.851Z,961.3
2024-02-01T02:26:10.619Z,961.3
2024-02-01T02:27:12.673Z,961.3
2024-02-01T02:28:14.673Z,961.2
2024-02-01T02:29:16.941Z,961.3
2024-02-01T02:30:19.346Z,961.2
2024-02-01T02:31:21.346Z,961.3
2024-02-01T02:32:23.191Z,961.3
2024-02-01T02:33:25.557Z,961.3
2024-02-01T02:34:27.951Z,961.3
2024-02-01T02:35:30.297Z,961.3
2024-02-01T02:36:32.374Z,961.3
2024-02-01T02:38:36.034Z,961.3
2024-02-01T02:39:38.017Z,961.3
2024-02-01T02:40:39.781Z,961.3
2024-02-01T02:41:41.934Z,961.3
2024-02-01T02:42:44.010Z,961.3
2024-02-01T02:43:45.824Z,961.3
2024-02-01T02:44:47.760Z,961.3
2024-02-01T02:45:49.611Z,961.3
2024-02-01T02:46:51.391Z,961.3
2024-02-01T02:47:53.636Z,961.3
2024-02-01T02:48:56.111Z,961.3
2024-02-01T02:49:58.155Z,961.3
2024-02-01T02:51:01.436Z,961.3
2024-02-01T02:52:03.313Z,961.3
2024-02-01T02:53:05.099Z,961.4
2024-02-01T02:54:07.205Z,961.4
2024-02-01T02:55:09.420Z,961.4
2024-02-01T02:56:11.200Z,961.4
2024-02-01T02:57:13.383Z,961.4
2024-02-01T02:58:15.219Z,961.3
2024-02-01T02:59:17.033Z,961.3
2024-02-01T03:00:19.131Z,961.3
2024-02-01T03:01:21.241Z,961.2
2024-02-01T03:02:23.281Z,961.3
2024-02-01T03:03:25.493Z,961.2
2024-02-01T03:04:27.718Z,961.2
2024-02-01T03:05:29.526Z,961.2
2024-02-01T03:06:31.655Z,961.2
2024-02-01T03:07:33.650Z,961.2
2024-02-01T03:08:35.497Z,961.1
2024-02-01T03:09:37.482Z,961.1
2024-02-01T03:10:39.244Z,961.1
2024-02-01T03:11:41.183Z,961.1
2024-02-01T03:12:43.097Z,961.1
2024-02-01T03:13:44.886Z,961.1
2024-02-01T03:14:46.861Z,961.1
2024-02-01T03:15:48.737Z,961.1
2024-02-01T03:16:50.691Z,961.1
2024-02-01T03:17:52.951Z,961.1
2024-02-01T03:18:55.658Z,961.1
2024-02-01T03:19:57.959Z,961.1
2024-02-01T03:21:00.203Z,961.1
2024-02-01T03:22:02.032Z,961.1
2024-02-01T03:23:03.941Z,961.1
2024-02-01T03:24:06.080Z,961.1
2024-02-01T03:25:08.400Z,961
2024-02-01T03:26:10.150Z,961
2024-02-01T03:27:12.267Z,961
2024-02-01T03:28:14.294Z,961
2024-02-01T03:29:16.138Z,961
2024-02-01T03:30:18.198Z,961
2024-02-01T03:31:21.438Z,961
2024-02-01T03:32:23.222Z,961
2024-02-01T03:33:25.575Z,961
2024-02-01T03:34:28.152Z,960.9
2024-02-01T03:35:30.109Z,961
2024-02-01T03:36:31.874Z,960.9
2024-02-01T03:37:33.646Z,960.9
2024-02-01T03:38:35.462Z,961
2024-02-01T03:39:37.307Z,960.9
2024-02-01T03:40:39.106Z,960.9
2024-02-01T03:41:40.943Z,961
2024-02-01T03:42:42.717Z,961
2024-02-01T03:43:44.632Z,961
2024-02-01T03:44:46.412Z,961
2024-02-01T03:45:48.849Z,960.9
2024-02-01T03:46:50.667Z,960.9
2024-02-01T03:47:52.975Z,960.9
2024-02-01T03:48:55.507Z,960.9
2024-02-01T03:49:57.987Z,960.9
2024-02-01T03:51:00.392Z,960.9
2024-02-01T03:52:02.726Z,960.9
2024-02-01T03:53:04.470Z,960.9
2024-02-01T03:54:06.552Z,960.9
2024-02-01T03:55:08.343Z,960.9
2024-02-01T03:56:10.461Z,960.9
2024-02-01T03:57:12.697Z,960.9
2024-02-01T03:58:14.795Z,960.9
2024-02-01T03:59:16.583Z,960.8
2024-02-01T04:00:18.731Z,960.9
2024-02-01T04:01:20.868Z,960.8
2024-02-01T04:02:22.855Z,960.9
2024-02-01T04:03:25.084Z,960.9
2024-02-01T04:04:27.220Z,960.9
2024-02-01T04:05:29.521Z,960.8
2024-02-01T04:06:31.978Z,960.8
2024-02-01T04:07:34.071Z,960.7
2024-02-01T04:08:36.064Z,960.8
2024-02-01T04:09:38.028Z,960.8
2024-02-01T04:10:39.751Z,960.8
2024-02-01T04:11:41.690Z,960.8
2024-02-01T04:12:43.478Z,960.8
2024-02-01T04:13:45.228Z,960.8
2024-02-01T04:14:47.142Z,960.8
2024-02-01T04:15:48.916Z,960.8
2024-02-01T04:16:50.730Z,960.8
2024-02-01T04:17:52.827Z,960.8
2024-02-01T04:18:55.315Z,960.8
2024-02-01T04:19:57.626Z,960.8
2024-02-01T04:20:59.636Z,960.8
2024-02-01T04:22:02.140Z,960.7
2024-02-01T04:23:04.377Z,960.8
2024-02-01T04:24:06.205Z,960.8
2024-02-01T04:25:08.082Z,960.8
2024-02-01T04:26:09.944Z,960.8
2024-02-01T04:27:11.931Z,960.8
2024-02-01T04:28:14.076Z,960.8
2024-02-01T04:29:16.221Z,960.8
2024-02-01T04:30:18.297Z,960.8
2024-02-01T04:31:20.324Z,960.8
2024-02-01T04:32:22.284Z,960.9
2024-02-01T04:33:24.722Z,960.8
2024-02-01T04:34:27.214Z,960.8
2024-02-01T04:35:29.346Z,960.8
2024-02-01T04:36:31.201Z,960.9
2024-02-01T04:37:33.141Z,960.8
2024-02-01T04:38:35.601Z,960.9
2024-02-01T04:39:37.390Z,960.9
2024-02-01T04:40:39.623Z,960.9
2024-02-01T04:41:41.611Z,960.9
2024-02-01T04:42:43.636Z,960.9
2024-02-01T04:43:45.417Z,960.9
2024-02-01T04:44:47.358Z,960.9
2024-02-01T04:45:49.262Z,960.9
2024-02-01T04:46:51.131Z,960.9
2024-02-01T04:47:53.409Z,960.8
2024-02-01T04:48:56.185Z,960.8
2024-02-01T04:49:59.003Z,960.8
2024-02-01T04:51:01.314Z,960.8
2024-02-01T04:52:03.265Z,960.8
2024-02-01T04:53:05.078Z,960.8
2024-02-01T04:54:07.034Z,960.8
2024-02-01T04:55:09.033Z,960.8
2024-02-01T04:56:10.770Z,960.8
2024-02-01T04:57:12.865Z,960.8
2024-02-01T04:58:14.971Z,960.8
2024-02-01T04:59:17.019Z,960.8
2024-02-01T05:00:19.871Z,960.7
2024-02-01T05:01:22.492Z,960.8
2024-02-01T05:02:24.547Z,960.7
2024-02-01T05:03:30.806Z,960.8
2024-02-01T05:04:33.113Z,960.8
2024-02-01T05:05:35.461Z,960.8
2024-02-01T05:06:37.716Z,960.8
2024-02-01T05:07:39.827Z,960.7
2024-02-01T05:08:41.642Z,960.7
2024-02-01T05:09:43.552Z,960.7
2024-02-01T05:10:45.998Z,960.7
2024-02-01T05:11:48.008Z,960.7
2024-02-01T05:12:49.834Z,960.7
2024-02-01T05:13:51.671Z,960.7
2024-02-01T05:14:53.622Z,960.7
2024-02-01T05:15:55.399Z,960.7
2024-02-01T05:16:57.180Z,960.7
2024-02-01T05:17:59.352Z,960.8
2024-02-01T05:19:02.806Z,960.7
2024-02-01T05:20:07.437Z,960.7
2024-02-01T05:21:09.720Z,960.7
2024-02-01T05:22:11.703Z,960.7
2024-02-01T05:23:13.543Z,960.7
2024-02-01T05:24:15.899Z,960.7
2024-02-01T05:25:18.178Z,960.7
2024-02-01T05:26:19.999Z,960.7
2024-02-01T05:27:22.037Z,960.6
2024-02-01T05:28:24.054Z,960.6
2024-02-01T05:29:25.938Z,960.6
2024-02-01T05:30:28.104Z,960.7
2024-02-01T05:31:30.123Z,960.7
2024-02-01T05:32:32.040Z,960.7
2024-02-01T05:33:34.827Z,960.7
2024-02-01T05:34:37.493Z,960.7
2024-02-01T05:35:39.991Z,960.7
2024-02-01T05:36:42.060Z,960.7
2024-02-01T05:37:43.836Z,960.7
2024-02-01T05:38:45.678Z,960.7
2024-02-01T05:39:47.596Z,960.6
2024-02-01T05:40:49.344Z,960.6
2024-02-01T05:41:51.388Z,960.6
2024-02-01T05:42:53.198Z,960.6
2024-02-01T05:43:55.047Z,960.6
2024-02-01T05:44:56.966Z,960.6
2024-02-01T05:45:58.896Z,960.6
2024-02-01T05:47:00.704Z,960.6
2024-02-01T05:48:03.411Z,960.6
2024-02-01T05:49:06.107Z,960.6
2024-02-01T05:50:08.317Z,960.7
2024-02-01T05:51:10.550Z,960.6
2024-02-01T05:52:12.401Z,960.6
2024-02-01T05:53:14.199Z,960.6
2024-02-01T05:54:16.405Z,960.6
2024-02-01T05:55:18.546Z,960.6
2024-02-01T05:56:20.314Z,960.7
2024-02-01T05:57:22.261Z,960.7
2024-02-01T05:58:24.191Z,960.7
2024-02-01T05:59:26.142Z,960.6
2024-02-01T06:00:28.489Z,960.7
2024-02-01T06:01:30.596Z,960.7
2024-02-01T06:02:32.403Z,960.7
2024-02-01T06:03:34.300Z,960.7
2024-02-01T06:04:36.667Z,960.8
2024-02-01T06:05:39.012Z,960.8
2024-02-01T06:06:41.490Z,960.8
2024-02-01T06:07:43.910Z,960.8
2024-02-01T06:08:45.853Z,960.8
2024-02-01T06:09:47.657Z,960.8
2024-02-01T06:10:49.457Z,960.9
2024-02-01T06:11:51.793Z,960.8
2024-02-01T06:12:53.803Z,960.8
2024-02-01T06:13:55.567Z,960.8
2024-02-01T06:14:57.680Z,960.8
2024-02-01T06:15:59.540Z,960.8
2024-02-01T06:17:02.702Z,960.9
2024-02-01T06:18:04.961Z,960.9
2024-02-01T06:19:07.696Z,960.9
2024-02-01T06:20:10.597Z,960.9
2024-02-01T06:21:13.036Z,960.9
2024-02-01T06:22:15.138Z,960.9
2024-02-01T06:23:16.961Z,960.9
2024-02-01T06:24:19.234Z,960.9
2024-02-01T06:25:21.143Z,960.9
2024-02-01T06:26:22.993Z,960.9
2024-02-01T06:27:25.236Z,960.9
2024-02-01T06:28:27.098Z,960.9
2024-02-01T06:29:28.945Z,960.9
2024-02-01T06:30:30.998Z,960.9
2024-02-01T06:31:33.143Z,960.9
2024-02-01T06:32:35.341Z,960.8
2024-02-01T06:33:37.690Z,960.9
2024-02-01T06:34:40.432Z,960.9
2024-02-01T06:35:42.714Z,960.9
2024-02-01T06:36:45.169Z,960.8
2024-02-01T06:37:46.936Z,960.8
2024-02-01T06:38:48.964Z,960.7
2024-02-01T06:39:54.987Z,960.7
2024-02-01T06:40:57.138Z,960.7
2024-02-01T06:41:59.435Z,960.7
2024-02-01T06:43:02.513Z,960.7
2024-02-01T06:44:04.545Z,960.7
2024-02-01T06:45:06.717Z,960.7
2024-02-01T06:46:08.744Z,960.7
2024-02-01T06:47:10.889Z,960.7
2024-02-01T06:48:14.279Z,960.7
2024-02-01T06:49:17.442Z,960.7
2024-02-01T06:50:20.251Z,960.7
2024-02-01T06:51:24.276Z,960.7
2024-02-01T06:52:26.929Z,960.7
2024-02-01T06:53:28.753Z,960.6
2024-02-01T06:54:31.303Z,960.6
2024-02-01T06:55:33.523Z,960.6
2024-02-01T06:56:35.573Z,960.6
2024-02-01T06:57:37.824Z,960.6
2024-02-01T06:58:39.704Z,960.6
2024-02-01T06:59:41.627Z,960.6
2024-02-01T07:00:44.331Z,960.6
2024-02-01T07:01:46.561Z,960.6
2024-02-01T07:02:49.658Z,960.5
2024-02-01T07:03:52.219Z,960.6
2024-02-01T07:04:55.475Z,960.6
2024-02-01T07:05:58.032Z,960.6
2024-02-01T07:07:00.566Z,960.5
2024-02-01T07:08:02.587Z,960.6
2024-02-01T07:09:04.469Z,960.6
2024-02-01T07:10:06.389Z,960.5
2024-02-01T07:11:08.186Z,960.6
2024-02-01T07:12:10.289Z,960.5
2024-02-01T07:13:12.322Z,960.5
2024-02-01T07:14:14.260Z,960.5
2024-02-01T07:15:16.276Z,960.5
2024-02-01T07:16:18.248Z,960.4
2024-02-01T07:17:20.189Z,960.5
2024-02-01T07:18:22.837Z,960.4
2024-02-01T07:19:25.906Z,960.4
2024-02-01T07:20:28.162Z,960.5
2024-02-01T07:21:30.255Z,960.4
2024-02-01T07:22:32.244Z,960.4
2024-02-01T07:23:34.398Z,960.4
2024-02-01T07:24:36.320Z,960.4
2024-02-01T07:25:38.831Z,960.4
2024-02-01T07:26:40.818Z,960.4
2024-02-01T07:27:42.686Z,960.4
2024-02-01T07:28:44.618Z,960.4
2024-02-01T07:29:46.660Z,960.4
2024-02-01T07:30:48.625Z,960.4
2024-02-01T07:31:50.571Z,960.3
2024-02-01T07:32:52.727Z,960.3
2024-02-01T07:33:55.332Z,960.3
2024-02-01T07:34:58.236Z,960.3
2024-02-01T07:36:00.430Z,960.3
2024-02-01T07:37:02.857Z,960.3
2024-02-01T07:38:04.648Z,960.3
2024-02-01T07:39:06.765Z,960.2
2024-02-01T07:40:08.868Z,960.3
2024-02-01T07:41:10.762Z,960.3
2024-02-01T07:42:12.868Z,960.3
2024-02-01T07:43:14.852Z,960.3
2024-02-01T07:44:16.677Z,960.3
2024-02-01T07:45:18.826Z,960.3
2024-02-01T07:46:21.091Z,960.3
2024-02-01T07:47:22.854Z,960.3
2024-02-01T07:48:25.202Z,960.3
2024-02-01T07:49:28.467Z,960.3
2024-02-01T07:50:30.869Z,960.2
2024-02-01T07:51:32.682Z,960.2
2024-02-01T07:52:34.629Z,960.2
2024-02-01T07:53:36.802Z,960.3
2024-02-01T07:54:38.978Z,960.2
2024-02-01T07:55:40.750Z,960.2
2024-02-01T07:56:42.709Z,960.2
2024-02-01T07:57:44.581Z,960.2
2024-02-01T07:58:46.363Z,960.2
2024-02-01T07:59:48.357Z,960.2
2024-02-01T08:00:50.343Z,960.2
2024-02-01T08:01:52.264Z,960.2
2024-02-01T08:02:54.182Z,960.2
2024-02-01T08:03:56.491Z,960.1
2024-02-01T08:04:58.480Z,960.1
2024-02-01T08:06:00.903Z,960.1
2024-02-01T08:07:04.900Z,960.1
2024-02-01T08:08:07.502Z,960
2024-02-01T08:09:09.481Z,960
2024-02-01T08:10:11.313Z,960.1
2024-02-01T08:11:13.194Z,960
2024-02-01T08:12:15.283Z,960
2024-02-01T08:13:17.381Z,960
2024-02-01T08:14:19.289Z,960
2024-02-01T08:15:22.491Z,960
2024-02-01T08:16:24.657Z,960
2024-02-01T08:17:26.472Z,959.9
2024-02-01T08:18:28.846Z,960
2024-02-01T08:19:41.978Z,959.9
2024-02-01T08:20:45.060Z,959.9
2024-02-01T08:21:47.399Z,960
2024-02-01T08:22:50.889Z,959.9
2024-02-01T08:23:52.978Z,959.9
2024-02-01T08:24:54.880Z,959.9
2024-02-01T08:25:57.251Z,959.9
2024-02-01T08:26:59.323Z,959.9
2024-02-01T08:28:01.542Z,959.9
2024-02-01T08:29:04.339Z,959.9
2024-02-01T08:30:06.343Z,959.9
2024-02-01T08:31:08.718Z,959.9
2024-02-01T08:32:11.487Z,959.9
2024-02-01T08:33:13.771Z,959.9
2024-02-01T08:34:17.304Z,959.9
2024-02-01T08:35:20.031Z,959.9
2024-02-01T08:36:22.717Z,959.9
2024-02-01T08:37:24.767Z,959.9
2024-02-01T08:38:26.574Z,959.9
2024-02-01T08:39:28.692Z,959.9
2024-02-01T08:40:30.518Z,959.9
2024-02-01T08:41:32.453Z,959.9
2024-02-01T08:42:35.445Z,959.9
2024-02-01T08:43:37.247Z,959.9
2024-02-01T08:44:39.091Z,959.9
2024-02-01T08:45:41.150Z,959.9
2024-02-01T08:46:43.076Z,960
2024-02-01T08:47:47.260Z,960
2024-02-01T08:48:49.996Z,960
2024-02-01T08:49:52.634Z,960
2024-02-01T08:50:54.858Z,960
2024-02-01T08:51:56.918Z,960.1
2024-02-01T08:52:58.756Z,960.1
2024-02-01T08:54:00.825Z,960
2024-02-01T08:55:04.421Z,960
2024-02-01T08:56:06.629Z,960.1
2024-02-01T08:57:08.577Z,960
2024-02-01T08:58:11.539Z,960
2024-02-01T08:59:13.381Z,960
2024-02-01T09:00:15.525Z,960
2024-02-01T09:01:17.777Z,960
2024-02-01T09:02:19.720Z,960
2024-02-01T09:03:22.085Z,960
2024-02-01T09:04:24.184Z,959.9
2024-02-01T09:05:26.717Z,959.9
2024-02-01T09:06:29.419Z,959.9
2024-02-01T09:07:32.809Z,959.8
2024-02-01T09:08:35.090Z,959.9
2024-02-01T09:09:37.043Z,959.8
2024-02-01T09:10:38.801Z,959.8
2024-02-01T09:11:40.691Z,959.8
2024-02-01T09:12:42.552Z,959.8
2024-02-01T09:13:45.075Z,959.8
2024-02-01T09:14:47.384Z,959.8
2024-02-01T09:15:49.408Z,959.7
2024-02-01T09:16:51.260Z,959.7
2024-02-01T09:17:53.664Z,959.7
2024-02-01T09:18:56.649Z,959.7
2024-02-01T09:19:59.315Z,959.6
2024-02-01T09:21:07.364Z,959.6
2024-02-01T09:22:09.520Z,959.6
2024-02-01T09:23:11.467Z,959.6
2024-02-01T09:24:13.537Z,959.6
2024-02-01T09:25:16.333Z,959.6
2024-02-01T09:26:18.521Z,959.6
2024-02-01T09:27:20.589Z,959.6
2024-02-01T09:28:22.445Z,959.5
2024-02-01T09:29:24.271Z,959.5
2024-02-01T09:30:26.603Z,959.5
2024-02-01T09:31:28.664Z,959.4
2024-02-01T09:32:30.776Z,959.4
2024-02-01T09:33:33.294Z,959.4
2024-02-01T09:34:35.725Z,959.4
2024-02-01T09:35:38.188Z,959.4
2024-02-01T09:36:40.056Z,959.4
2024-02-01T09:37:41.911Z,959.4
2024-02-01T09:38:47.224Z,959.4
2024-02-01T09:39:49.364Z,959.4
2024-02-01T09:40:51.157Z,959.4
2024-02-01T09:41:53.191Z,959.4
2024-02-01T09:42:55.180Z,959.4
2024-02-01T09:43:57.039Z,959.4
2024-02-01T09:44:59.056Z,959.3
2024-02-01T09:46:01.045Z,959.4
2024-02-01T09:47:03.254Z,959.3
2024-02-01T09:48:05.404Z,959.3
2024-02-01T09:49:28.023Z,959.3
2024-02-01T09:50:35.029Z,959.3
2024-02-01T09:51:37.087Z,959.3
2024-02-01T09:52:38.889Z,959.3
2024-02-01T09:53:40.866Z,959.2
2024-02-01T09:54:42.802Z,959.2
2024-02-01T09:55:44.613Z,959.2
2024-02-01T09:56:46.618Z,959.1
2024-02-01T09:57:48.450Z,959.1
2024-02-01T09:58:50.307Z,959.1
2024-02-01T09:59:52.193Z,959.1
2024-02-01T10:00:54.169Z,959.1
2024-02-01T10:01:56.151Z,959
2024-02-01T10:02:58.611Z,959
2024-02-01T10:04:02.133Z,959
2024-02-01T10:05:04.195Z,959
2024-02-01T10:06:06.781Z,959
2024-02-01T10:07:09.109Z,959
2024-02-01T10:08:11.149Z,959
2024-02-01T10:09:12.935Z,959
2024-02-01T10:10:14.749Z,958.9
2024-02-01T10:11:16.742Z,958.9
2024-02-01T10:12:19.004Z,959
2024-02-01T10:13:21.418Z,959
2024-02-01T10:14:23.185Z,958.9
2024-02-01T10:15:25.576Z,958.9
2024-02-01T10:16:27.653Z,958.9
2024-02-01T10:17:29.949Z,958.9
2024-02-01T10:18:32.630Z,958.8
2024-02-01T10:19:35.118Z,958.8
2024-02-01T10:20:37.976Z,958.8
2024-02-01T10:21:58.387Z,958.7
2024-02-01T10:23:02.750Z,958.7
2024-02-01T10:24:04.714Z,958.7
2024-02-01T10:25:06.904Z,958.7
2024-02-01T10:26:08.788Z,958.7
2024-02-01T10:27:10.853Z,958.6
2024-02-01T10:28:12.814Z,958.6
2024-02-01T10:29:14.788Z,958.6
2024-02-01T10:30:16.740Z,958.5
2024-02-01T10:31:18.978Z,958.5
2024-02-01T10:32:21.123Z,958.5
2024-02-01T10:33:29.749Z,958.5
2024-02-01T10:34:32.394Z,958.5
2024-02-01T10:35:34.436Z,958.4
2024-02-01T10:36:36.292Z,958.5
2024-02-01T10:37:38.061Z,958.5
2024-02-01T10:38:42.880Z,958.4
2024-02-01T10:39:44.988Z,958.4
2024-02-01T10:40:46.848Z,958.4
2024-02-01T10:41:48.963Z,958.3
2024-02-01T10:42:50.871Z,958.3
2024-02-01T10:43:52.694Z,958.2
2024-02-01T10:44:54.588Z,958.2
2024-02-01T10:45:56.430Z,958.2
2024-02-01T10:46:58.283Z,958.2
2024-02-01T10:48:00.643Z,958.1
2024-02-01T10:49:03.539Z,958.1
2024-02-01T10:50:05.947Z,958.1
2024-02-01T10:51:07.836Z,958.1
2024-02-01T10:52:09.712Z,958.1
2024-02-01T10:53:11.512Z,958
2024-02-01T10:54:13.327Z,958
2024-02-01T10:55:15.185Z,958
2024-02-01T10:56:17.107Z,958
2024-02-01T10:57:19.456Z,958
2024-02-01T10:58:21.666Z,958
2024-02-01T10:59:23.586Z,957.9
2024-02-01T11:00:25.806Z,957.9
2024-02-01T11:01:27.881Z,957.9
2024-02-01T11:02:29.847Z,957.9
2024-02-01T11:03:37.134Z,957.8
2024-02-01T11:04:40.305Z,957.8
2024-02-01T11:05:42.282Z,957.8
2024-02-01T11:06:44.638Z,957.7
2024-02-01T11:07:46.678Z,957.7
2024-02-01T11:08:48.788Z,957.7
2024-02-01T11:09:51.136Z,957.7
2024-02-01T11:10:53.259Z,957.7
2024-02-01T11:11:55.321Z,957.7
2024-02-01T11:12:57.579Z,957.6
2024-02-01T11:13:59.400Z,957.7
2024-02-01T11:15:01.347Z,957.6
2024-02-01T11:16:05.053Z,957.6
2024-02-01T11:17:06.801Z,957.6
2024-02-01T11:18:09.740Z,957.6
2024-02-01T11:19:12.967Z,957.6
2024-02-01T11:20:15.688Z,957.6
2024-02-01T11:21:18.084Z,957.5
2024-02-01T11:22:20.022Z,957.6
2024-02-01T11:23:21.872Z,957.5
2024-02-01T11:24:23.676Z,957.5
2024-02-01T11:25:25.475Z,957.5
2024-02-01T11:26:27.254Z,957.5
2024-02-01T11:27:29.459Z,957.5
2024-02-01T11:28:31.359Z,957.5
2024-02-01T11:29:33.155Z,957.5
2024-02-01T11:30:35.317Z,957.5
2024-02-01T11:31:52.237Z,957.4
2024-02-01T11:32:55.292Z,957.4
2024-02-01T11:33:58.076Z,957.4
2024-02-01T11:35:01.459Z,957.4
2024-02-01T11:36:03.576Z,957.3
2024-02-01T11:37:05.743Z,957.3
2024-02-01T11:38:07.464Z,957.3
2024-02-01T11:39:09.430Z,957.3
2024-02-01T11:40:11.273Z,957.3
2024-02-01T11:41:13.379Z,957.3
2024-02-01T11:42:33.575Z,957.2
2024-02-01T11:43:36.168Z,957.2
2024-02-01T11:44:38.115Z,957.2
2024-02-01T11:45:39.994Z,957.2
2024-02-01T11:46:42.426Z,957.2
2024-02-01T11:47:44.867Z,957.2
2024-02-01T11:48:47.581Z,957.2
2024-02-01T11:49:50.149Z,957.2
2024-02-01T11:50:52.636Z,957.2
2024-02-01T11:51:54.554Z,957.1
2024-02-01T11:52:56.332Z,957.1
2024-02-01T11:53:58.278Z,957.1
2024-02-01T11:55:00.283Z,957.1
2024-02-01T11:56:06.271Z,957.1
2024-02-01T11:57:08.164Z,957.1
2024-02-01T11:58:10.135Z,957
2024-02-01T11:59:12.007Z,957
2024-02-01T12:00:14.776Z,957
2024-02-01T12:01:18.235Z,957
2024-02-01T12:02:20.747Z,957
2024-02-01T12:03:22.762Z,957
2024-02-01T12:04:25.036Z,956.9
2024-02-01T12:05:26.891Z,957
2024-02-01T12:06:28.856Z,957
2024-02-01T12:07:30.999Z,956.9
2024-02-01T12:08:36.134Z,956.9
2024-02-01T12:09:38.112Z,956.9
2024-02-01T12:10:40.045Z,956.9
2024-02-01T12:11:41.985Z,956.9
2024-02-01T12:12:43.774Z,956.9
2024-02-01T12:13:45.553Z,956.9
2024-02-01T12:14:47.669Z,956.9
2024-02-01T12:15:49.679Z,956.9
2024-02-01T12:16:51.412Z,956.9
2024-02-01T12:17:53.613Z,956.9
2024-02-01T12:18:56.606Z,956.9
2024-02-01T12:19:59.735Z,956.9
2024-02-01T12:21:02.165Z,956.9
2024-02-01T12:22:04.706Z,956.9
2024-02-01T12:23:06.529Z,956.8
2024-02-01T12:24:08.516Z,956.8
2024-02-01T12:25:10.341Z,956.8
2024-02-01T12:26:12.138Z,956.8
2024-02-01T12:27:14.067Z,956.7
2024-02-01T12:28:16.130Z,956.7
2024-02-01T12:29:18.097Z,956.7
2024-02-01T12:30:20.380Z,956.7
2024-02-01T12:31:22.588Z,956.7
2024-02-01T12:32:24.384Z,956.7
2024-02-01T12:33:26.772Z,956.6
2024-02-01T12:34:29.916Z,956.6
2024-02-01T12:35:32.132Z,956.6
2024-02-01T12:36:34.005Z,956.6
2024-02-01T12:37:35.789Z,956.6
2024-02-01T12:38:37.569Z,956.6
2024-02-01T12:39:39.356Z,956.6
2024-02-01T12:40:41.171Z,956.5
2024-02-01T12:41:43.139Z,956.5
2024-02-01T12:42:44.944Z,956.5
2024-02-01T12:43:46.776Z,956.5
2024-02-01T12:44:48.622Z,956.5
2024-02-01T12:45:50.527Z,956.5
2024-02-01T12:46:52.461Z,956.5
2024-02-01T12:47:54.454Z,956.5
2024-02-01T12:48:57.254Z,956.4
2024-02-01T12:49:59.570Z,956.4
2024-02-01T12:51:02.150Z,956.4
2024-02-01T12:52:03.988Z,956.4
2024-02-01T12:53:05.776Z,956.3
2024-02-01T12:54:07.652Z,956.3
2024-02-01T12:55:09.483Z,956.3
2024-02-01T12:56:11.297Z,956.3
2024-02-01T12:57:13.385Z,956.3
2024-02-01T12:58:15.450Z,956.3
2024-02-01T12:59:17.224Z,956.2
2024-02-01T13:00:19.440Z,956.2
2024-02-01T13:01:21.560Z,956.3
2024-02-01T13:02:23.688Z,956.2
2024-02-01T13:03:25.720Z,956.2
2024-02-01T13:04:28.085Z,956.1
2024-02-01T13:05:30.176Z,956.1
2024-02-01T13:06:32.566Z,956.1
2024-02-01T13:07:34.844Z,956.1
2024-02-01T13:08:36.604Z,956.1
2024-02-01T13:09:38.339Z,956.1
2024-02-01T13:10:40.717Z,956.1
2024-02-01T13:11:43.071Z,956.1
2024-02-01T13:12:44.924Z,956.1
2024-02-01T13:13:46.729Z,956
2024-02-01T13:14:48.731Z,956
2024-02-01T13:15:50.694Z,956
2024-02-01T13:16:52.474Z,956
2024-02-01T13:17:55.530Z,956.1
2024-02-01T13:18:58.553Z,956
2024-02-01T13:20:01.630Z,956
2024-02-01T13:21:04.115Z,956
2024-02-01T13:22:06.008Z,956
2024-02-01T13:23:07.787Z,955.9
2024-02-01T13:24:09.641Z,955.9
2024-02-01T13:25:11.585Z,955.9
2024-02-01T13:26:13.684Z,955.9
2024-02-01T13:27:15.906Z,955.9
2024-02-01T13:28:17.855Z,955.9
2024-02-01T13:29:19.635Z,955.9